Time;durP1;ratioP1;P1;durP2;ratioP2;P2;SDS_P1;SDS_P2;PMS_P1;PMS_P2;Temp;Humidity;BMP_temperature;BMP_pressure;BME280_temperature;BME280_humidity;BME280_pressure;Samples;Min_cycle;Max_cycle;Signal;HPM_P1;HPM_P2
2023/08/04 00:02:25;;;;;;;9.57;2.53;;;;;;;;;;5080030;28;20043;-76
2023/08/04 00:04:52;;;;;;;6.68;2.05;;;;;;;;;;5063270;28;20126;-77
2023/08/04 00:07:18;;;;;;;9.13;2.25;;;;;;;;;;5076816;28;20086;-77
2023/08/04 00:09:44;;;;;;;7.75;2.13;;;;;;;;;;5058798;28;20051;-77
2023/08/04 00:12:10;;;;;;;6.30;1.80;;;;;;;;;;5055393;28;22079;-76
2023/08/04 00:14:36;;;;;;;6.75;1.92;;;;;;;;;;5074588;28;20052;-77
2023/08/04 00:17:03;;;;;;;7.55;1.90;;;;;;;;;;5088397;28;20048;-76
2023/08/04 00:19:29;;;;;;;7.57;1.98;;;;;;;;;;5083997;28;20047;-76
2023/08/04 00:21:56;;;;;;;6.65;2.15;;;;;;;;;;5080129;28;20048;-76
2023/08/04 00:24:22;;;;;;;9.30;1.95;;;;;;;;;;5045313;28;22392;-76
2023/08/04 00:26:48;;;;;;;10.27;2.08;;;;;;;;;;5059877;28;20055;-75
2023/08/04 00:29:14;;;;;;;9.80;2.67;;;;;;;;;;5063215;28;20048;-76
2023/08/04 00:31:40;;;;;;;11.88;1.70;;;;;;;;;;5080409;28;21021;-76
2023/08/04 00:34:06;;;;;;;11.38;2.53;;;;;;;;;;5059145;28;20044;-76
2023/08/04 00:36:33;;;;;;;6.63;2.33;;;;;;;;;;5077263;28;20056;-76
2023/08/04 00:38:59;;;;;;;5.78;1.95;;;;;;;;;;5059513;28;22406;-76
2023/08/04 00:41:25;;;;;;;8.15;1.70;;;;;;;;;;5045086;28;20047;-76
2023/08/04 00:43:52;;;;;;;8.75;2.05;;;;;;;;;;5040944;28;20114;-76
2023/08/04 00:46:18;;;;;;;7.40;1.80;;;;;;;;;;5059818;28;20062;-76
2023/08/04 00:48:44;;;;;;;4.40;1.58;;;;;;;;;;5075728;28;20079;-76
2023/08/04 00:51:10;;;;;;;10.30;1.83;;;;;;;;;;5055917;28;20053;-75
2023/08/04 00:53:37;;;;;;;7.72;1.85;;;;;;;;;;5070893;28;20054;-76
2023/08/04 00:56:03;;;;;;;5.13;1.63;;;;;;;;;;5041680;28;20075;-76
2023/08/04 00:58:30;;;;;;;9.60;2.05;;;;;;;;;;5055754;28;21139;-76
2023/08/04 01:00:56;;;;;;;8.52;1.75;;;;;;;;;;5055878;28;20198;-76
2023/08/04 01:03:25;;;;;;;13.80;2.60;;;;;;;;;;5034154;28;22004;-76
2023/08/04 01:06:01;;;;;;;5.22;1.65;;;;;;;;;;5074234;28;20047;-76
2023/08/04 01:08:30;;;;;;;7.30;1.58;;;;;;;;;;5073793;28;20062;-75
2023/08/04 01:11:01;;;;;;;9.55;2.17;;;;;;;;;;5071412;28;20094;-75
2023/08/04 01:13:28;;;;;;;9.52;2.00;;;;;;;;;;5048300;28;20542;-75
2023/08/04 01:15:55;;;;;;;7.95;1.88;;;;;;;;;;5048789;28;20082;-76
2023/08/04 01:18:21;;;;;;;7.68;2.42;;;;;;;;;;5053934;28;20102;-76
2023/08/04 01:20:47;;;;;;;8.93;2.70;;;;;;;;;;5054721;28;20044;-76
2023/08/04 01:23:14;;;;;;;6.72;2.00;;;;;;;;;;5054599;28;20732;-76
2023/08/04 01:25:40;;;;;;;8.90;1.70;;;;;;;;;;5071598;28;20084;-76
2023/08/04 01:28:12;;;;;;;4.68;1.83;;;;;;;;;;5049936;28;20269;-75
2023/08/04 01:30:39;;;;;;;6.82;1.88;;;;;;;;;;5073170;28;20175;-75
2023/08/04 01:33:05;;;;;;;4.35;1.65;;;;;;;;;;5073755;28;20083;-76
2023/08/04 01:35:31;;;;;;;7.35;1.60;;;;;;;;;;5054780;28;20484;-75
2023/08/04 01:37:57;;;;;;;6.38;2.05;;;;;;;;;;5087041;28;20056;-76
2023/08/04 01:40:23;;;;;;;8.02;1.83;;;;;;;;;;5060433;28;20101;-76
2023/08/04 01:42:49;;;;;;;5.88;1.67;;;;;;;;;;5076036;27;20252;-75
2023/08/04 01:45:15;;;;;;;8.50;1.73;;;;;;;;;;5062568;28;20044;-76
2023/08/04 01:47:42;;;;;;;9.77;1.77;;;;;;;;;;5075056;28;20479;-75
2023/08/04 01:50:09;;;;;;;6.90;2.47;;;;;;;;;;5076106;28;20105;-75
2023/08/04 01:52:35;;;;;;;11.07;2.22;;;;;;;;;;5071572;28;20086;-75
2023/08/04 01:55:01;;;;;;;3.83;1.40;;;;;;;;;;5053317;28;20071;-76
2023/08/04 01:57:27;;;;;;;8.20;1.63;;;;;;;;;;5074822;28;20075;-76
2023/08/04 01:59:53;;;;;;;4.47;1.40;;;;;;;;;;5059784;28;20059;-76
2023/08/04 02:02:19;;;;;;;3.47;1.27;;;;;;;;;;5075010;28;20126;-75
2023/08/04 02:04:45;;;;;;;5.88;1.23;;;;;;;;;;5058848;28;20144;-75
2023/08/04 02:07:12;;;;;;;6.93;2.05;;;;;;;;;;5057685;28;20489;-76
2023/08/04 02:09:38;;;;;;;4.35;1.33;;;;;;;;;;5060273;28;20052;-75
2023/08/04 02:12:04;;;;;;;2.65;1.13;;;;;;;;;;5061268;28;21738;-76
2023/08/04 02:14:30;;;;;;;5.10;1.50;;;;;;;;;;5063319;28;20055;-76
2023/08/04 02:16:56;;;;;;;5.85;1.52;;;;;;;;;;5081798;28;20055;-76
2023/08/04 02:19:22;;;;;;;3.85;1.13;;;;;;;;;;5060229;28;20083;-76
2023/08/04 02:21:49;;;;;;;5.40;1.30;;;;;;;;;;5041318;28;21818;-76
2023/08/04 02:24:15;;;;;;;8.32;1.90;;;;;;;;;;5047039;28;20057;-75
2023/08/04 02:26:44;;;;;;;4.57;1.50;;;;;;;;;;5042076;28;20399;-76
2023/08/04 02:29:10;;;;;;;8.30;1.67;;;;;;;;;;5060831;28;20186;-75
2023/08/04 02:31:36;;;;;;;5.93;1.73;;;;;;;;;;5061819;28;20085;-76
2023/08/04 02:34:03;;;;;;;5.78;1.75;;;;;;;;;;5045753;28;20056;-76
2023/08/04 02:36:30;;;;;;;7.50;1.75;;;;;;;;;;5072972;27;20090;-76
2023/08/04 02:38:56;;;;;;;7.72;2.65;;;;;;;;;;5059069;27;21605;-75
2023/08/04 02:41:22;;;;;;;3.95;1.52;;;;;;;;;;5061155;27;20099;-75
2023/08/04 02:43:48;;;;;;;7.05;2.55;;;;;;;;;;5079206;28;20510;-76
2023/08/04 02:46:14;;;;;;;3.83;1.80;;;;;;;;;;5082118;27;20059;-75
2023/08/04 02:48:41;;;;;;;4.47;2.20;;;;;;;;;;5080225;28;20488;-75
2023/08/04 02:51:11;;;;;;;6.20;1.95;;;;;;;;;;5076659;28;20134;-75
2023/08/04 02:53:39;;;;;;;5.85;1.80;;;;;;;;;;5060287;28;20051;-76
2023/08/04 02:56:09;;;;;;;7.20;2.03;;;;;;;;;;5061856;28;20093;-77
2023/08/04 02:58:35;;;;;;;12.27;2.70;;;;;;;;;;5060571;28;21047;-76
2023/08/04 03:01:02;;;;;;;5.60;2.05;;;;;;;;;;5062388;28;20044;-76
2023/08/04 03:03:28;;;;;;;4.75;1.90;;;;;;;;;;5044097;28;20066;-77
2023/08/04 03:05:57;;;;;;;9.55;2.53;;;;;;;;;;5047671;28;20052;-77
2023/08/04 03:08:23;;;;;;;4.30;1.90;;;;;;;;;;5059970;28;21079;-77
2023/08/04 03:10:49;;;;;;;12.52;2.80;;;;;;;;;;5044556;28;20173;-76
2023/08/04 03:13:16;;;;;;;8.10;2.58;;;;;;;;;;5042336;27;20052;-76
2023/08/04 03:15:42;;;;;;;3.33;1.65;;;;;;;;;;5079989;27;20089;-77
2023/08/04 03:18:08;;;;;;;2.25;1.70;;;;;;;;;;5061048;28;21652;-77
2023/08/04 03:20:38;;;;;;;4.57;1.58;;;;;;;;;;5073129;28;20051;-77
2023/08/04 03:23:05;;;;;;;4.70;1.42;;;;;;;;;;5051632;28;20415;-77
2023/08/04 03:25:31;;;;;;;6.93;2.13;;;;;;;;;;5071756;28;20044;-77
2023/08/04 03:27:57;;;;;;;4.88;1.80;;;;;;;;;;5060513;28;20087;-76
2023/08/04 03:30:24;;;;;;;7.10;1.98;;;;;;;;;;5058885;28;20153;-75
2023/08/04 03:32:50;;;;;;;4.38;1.58;;;;;;;;;;5079880;28;20047;-76
2023/08/04 03:35:16;;;;;;;4.78;2.03;;;;;;;;;;5043704;28;20048;-75
2023/08/04 03:37:42;;;;;;;4.70;1.88;;;;;;;;;;5058905;28;20098;-76
2023/08/04 03:40:08;;;;;;;4.10;1.45;;;;;;;;;;5077504;28;20237;-76
2023/08/04 03:42:38;;;;;;;4.70;1.90;;;;;;;;;;5041369;28;20576;-75
2023/08/04 03:45:08;;;;;;;6.40;1.73;;;;;;;;;;5056864;28;20090;-77
2023/08/04 03:47:37;;;;;;;7.78;2.20;;;;;;;;;;5043033;28;20086;-76
2023/08/04 03:50:04;;;;;;;3.58;1.80;;;;;;;;;;5071216;28;21388;-76
2023/08/04 03:52:37;;;;;;;5.53;1.73;;;;;;;;;;5045294;28;20453;-76
2023/08/04 03:55:04;;;;;;;10.13;2.45;;;;;;;;;;5070108;28;20078;-77
2023/08/04 03:57:30;;;;;;;6.20;2.20;;;;;;;;;;5044887;28;20055;-76
2023/08/04 03:59:56;;;;;;;3.80;1.92;;;;;;;;;;5055544;28;20052;-76
2023/08/04 04:02:22;;;;;;;1.42;1.33;;;;;;;;;;5057796;28;20065;-76
2023/08/04 04:04:48;;;;;;;1.58;1.00;;;;;;;;;;5058174;28;20054;-76
2023/08/04 04:07:14;;;;;;;1.70;1.20;;;;;;;;;;5050952;28;20047;-77
2023/08/04 04:09:40;;;;;;;3.67;1.08;;;;;;;;;;5076367;28;20051;-77
2023/08/04 04:12:07;;;;;;;2.03;1.17;;;;;;;;;;5060423;28;20190;-76
2023/08/04 04:14:33;;;;;;;1.23;1.02;;;;;;;;;;5056025;28;20520;-77
2023/08/04 04:16:59;;;;;;;1.55;1.33;;;;;;;;;;5059918;28;20545;-77
2023/08/04 04:19:25;;;;;;;6.40;1.20;;;;;;;;;;5042422;28;20052;-77
2023/08/04 04:21:51;;;;;;;1.95;1.35;;;;;;;;;;5059214;28;20040;-78
2023/08/04 04:24:17;;;;;;;2.20;1.40;;;;;;;;;;5043212;28;20388;-77
2023/08/04 04:26:43;;;;;;;4.60;2.00;;;;;;;;;;5055188;28;20442;-77
2023/08/04 04:29:09;;;;;;;6.93;2.30;;;;;;;;;;5062169;28;20420;-77
2023/08/04 04:31:36;;;;;;;2.72;1.80;;;;;;;;;;5047978;28;20062;-78
2023/08/04 04:34:03;;;;;;;6.57;1.63;;;;;;;;;;5077383;28;20900;-78
2023/08/04 04:36:29;;;;;;;5.90;2.22;;;;;;;;;;5079973;28;20071;-77
2023/08/04 04:38:55;;;;;;;3.95;1.90;;;;;;;;;;5051908;28;20052;-77
2023/08/04 04:41:21;;;;;;;4.18;1.98;;;;;;;;;;5072274;28;20048;-78
2023/08/04 04:43:47;;;;;;;3.10;2.30;;;;;;;;;;5074765;28;20050;-78
2023/08/04 04:46:13;;;;;;;3.75;2.00;;;;;;;;;;5078002;28;20574;-77
2023/08/04 04:48:39;;;;;;;3.03;1.70;;;;;;;;;;5059141;28;20130;-77
2023/08/04 04:51:05;;;;;;;2.53;1.73;;;;;;;;;;5075853;28;20048;-77
2023/08/04 04:53:31;;;;;;;2.88;2.13;;;;;;;;;;5057703;28;20542;-77
2023/08/04 04:55:57;;;;;;;5.30;2.35;;;;;;;;;;5054673;28;20040;-77
2023/08/04 04:58:23;;;;;;;3.72;1.83;;;;;;;;;;5058683;28;20051;-78
2023/08/04 05:00:49;;;;;;;3.35;1.95;;;;;;;;;;5079596;28;20050;-78
2023/08/04 05:03:15;;;;;;;2.42;1.85;;;;;;;;;;5052549;28;20125;-77
2023/08/04 05:05:43;;;;;;;4.75;1.90;;;;;;;;;;5081058;28;20052;-77
2023/08/04 05:08:09;;;;;;;4.28;1.52;;;;;;;;;;5081103;28;20059;-78
2023/08/04 05:10:35;;;;;;;2.40;1.92;;;;;;;;;;5065139;28;20387;-77
2023/08/04 05:13:01;;;;;;;4.38;2.35;;;;;;;;;;5084434;28;20526;-78
2023/08/04 05:15:27;;;;;;;3.58;1.90;;;;;;;;;;5066511;28;20040;-78
2023/08/04 05:17:53;;;;;;;4.13;2.03;;;;;;;;;;5068471;28;20090;-77
2023/08/04 05:20:19;;;;;;;5.53;1.80;;;;;;;;;;5084555;28;20442;-77
2023/08/04 05:22:45;;;;;;;5.07;1.60;;;;;;;;;;5069350;28;20066;-77
2023/08/04 05:25:11;;;;;;;1.98;1.88;;;;;;;;;;5063646;28;20640;-77
2023/08/04 05:27:38;;;;;;;2.42;1.75;;;;;;;;;;5085716;27;20035;-77
2023/08/04 05:30:04;;;;;;;3.65;1.95;;;;;;;;;;5068302;28;20087;-79
2023/08/04 05:32:30;;;;;;;4.07;1.70;;;;;;;;;;5083664;28;20048;-79
2023/08/04 05:34:56;;;;;;;2.55;1.40;;;;;;;;;;5072842;28;20048;-80
2023/08/04 05:37:22;;;;;;;3.47;1.85;;;;;;;;;;5065879;28;20051;-80
2023/08/04 05:39:49;;;;;;;3.33;1.80;;;;;;;;;;5070190;28;20070;-80
2023/08/04 05:42:15;;;;;;;2.80;1.88;;;;;;;;;;5071022;28;20565;-80
2023/08/04 05:44:41;;;;;;;4.07;1.75;;;;;;;;;;5089314;28;20714;-81
2023/08/04 05:47:07;;;;;;;7.10;1.90;;;;;;;;;;5070620;28;20085;-79
2023/08/04 05:49:33;;;;;;;3.40;1.85;;;;;;;;;;5050004;28;20082;-80
2023/08/04 05:51:59;;;;;;;2.22;1.70;;;;;;;;;;5070615;28;20183;-80
2023/08/04 05:54:25;;;;;;;2.10;1.70;;;;;;;;;;5073816;28;20162;-80
2023/08/04 05:56:51;;;;;;;5.32;1.90;;;;;;;;;;5055964;28;20052;-80
2023/08/04 05:59:18;;;;;;;4.75;1.75;;;;;;;;;;5086726;28;20135;-79
2023/08/04 06:01:44;;;;;;;4.65;1.83;;;;;;;;;;5086349;28;20101;-79
2023/08/04 06:04:10;;;;;;;5.00;2.65;;;;;;;;;;5068187;28;20062;-80
2023/08/04 06:06:36;;;;;;;3.88;2.20;;;;;;;;;;5052949;28;20054;-80
2023/08/04 06:09:03;;;;;;;3.40;2.55;;;;;;;;;;5064731;28;20048;-79
2023/08/04 06:11:29;;;;;;;3.80;2.55;;;;;;;;;;5082408;28;20066;-79
2023/08/04 06:13:55;;;;;;;2.95;2.25;;;;;;;;;;5064828;28;20047;-80
2023/08/04 06:16:21;;;;;;;4.88;2.58;;;;;;;;;;5085618;27;20612;-81
2023/08/04 06:18:47;;;;;;;6.60;2.65;;;;;;;;;;5069587;28;20113;-80
2023/08/04 06:21:13;;;;;;;9.45;2.95;;;;;;;;;;5065835;28;20086;-80
2023/08/04 06:23:45;;;;;;;7.82;2.28;;;;;;;;;;5049497;28;20087;-79
2023/08/04 06:26:12;;;;;;;8.70;3.22;;;;;;;;;;5084072;28;20054;-81
2023/08/04 06:28:38;;;;;;;4.72;2.60;;;;;;;;;;5061234;28;20091;-80
2023/08/04 06:31:04;;;;;;;8.15;2.88;;;;;;;;;;5045057;28;20055;-79
2023/08/04 06:33:30;;;;;;;13.20;3.63;;;;;;;;;;5064872;28;20138;-80
2023/08/04 06:35:57;;;;;;;7.82;3.08;;;;;;;;;;5066041;28;20514;-80
2023/08/04 06:38:23;;;;;;;6.22;2.85;;;;;;;;;;5064002;28;20051;-79
2023/08/04 06:40:49;;;;;;;9.38;2.72;;;;;;;;;;5082326;27;20086;-80
2023/08/04 06:43:15;;;;;;;4.88;2.55;;;;;;;;;;5048686;28;20756;-80
2023/08/04 06:45:41;;;;;;;26.00;3.92;;;;;;;;;;5066025;28;21675;-80
2023/08/04 06:48:07;;;;;;;7.78;2.97;;;;;;;;;;5084779;28;20400;-80
2023/08/04 06:50:33;;;;;;;20.90;4.38;;;;;;;;;;5050962;28;20056;-80
2023/08/04 06:53:00;;;;;;;22.80;3.63;;;;;;;;;;5066831;28;20591;-80
2023/08/04 06:55:26;;;;;;;11.80;2.97;;;;;;;;;;5064598;28;21811;-81
2023/08/04 06:57:52;;;;;;;11.15;2.35;;;;;;;;;;5059346;28;20154;-79
2023/08/04 07:00:18;;;;;;;7.03;2.30;;;;;;;;;;5068023;28;20500;-80
2023/08/04 07:02:48;;;;;;;8.15;2.92;;;;;;;;;;5086619;28;20122;-83
2023/08/04 07:05:14;;;;;;;6.22;2.50;;;;;;;;;;5049286;28;20059;-84
2023/08/04 07:07:40;;;;;;;8.10;2.53;;;;;;;;;;5068621;28;21425;-83
2023/08/04 07:10:07;;;;;;;15.07;3.22;;;;;;;;;;5066480;28;20476;-84
2023/08/04 07:12:33;;;;;;;13.95;3.47;;;;;;;;;;5066805;28;20371;-83
2023/08/04 07:14:59;;;;;;;6.70;2.35;;;;;;;;;;5064921;28;20051;-83
2023/08/04 07:17:25;;;;;;;16.13;3.28;;;;;;;;;;5071929;28;20064;-83
2023/08/04 07:19:51;;;;;;;13.45;2.40;;;;;;;;;;5063207;28;20040;-83
2023/08/04 07:22:17;;;;;;;17.45;2.65;;;;;;;;;;5061805;28;20070;-83
2023/08/04 07:24:46;;;;;;;12.40;2.38;;;;;;;;;;5046333;28;20148;-82
2023/08/04 07:27:13;;;;;;;5.07;1.55;;;;;;;;;;5043032;28;20766;-78
2023/08/04 07:29:39;;;;;;;7.45;1.70;;;;;;;;;;5041771;28;20408;-77
2023/08/04 07:32:05;;;;;;;3.88;1.40;;;;;;;;;;5060111;28;22033;-82
2023/08/04 07:34:32;;;;;;;10.57;1.90;;;;;;;;;;5063886;28;20078;-83
2023/08/04 07:36:58;;;;;;;5.80;1.77;;;;;;;;;;5057039;28;20060;-82
2023/08/04 07:39:24;;;;;;;4.03;1.98;;;;;;;;;;5063820;28;20044;-83
2023/08/04 07:41:50;;;;;;;6.70;1.75;;;;;;;;;;5064082;28;20036;-83
2023/08/04 07:44:16;;;;;;;15.43;2.50;;;;;;;;;;5047595;28;20070;-83
2023/08/04 07:46:42;;;;;;;8.00;2.03;;;;;;;;;;5046572;28;20083;-83
2023/08/04 07:49:08;;;;;;;9.40;2.60;;;;;;;;;;5042273;28;20056;-78
2023/08/04 07:51:34;;;;;;;6.60;2.47;;;;;;;;;;5057854;28;20143;-78
2023/08/04 07:54:00;;;;;;;9.57;2.75;;;;;;;;;;5057349;28;20041;-77
2023/08/04 07:56:31;;;;;;;9.30;3.78;;;;;;;;;;5058425;28;20180;-77
2023/08/04 07:58:57;;;;;;;11.20;3.00;;;;;;;;;;5060575;28;20048;-76
2023/08/04 08:01:23;;;;;;;6.45;2.70;;;;;;;;;;5058819;28;20510;-76
2023/08/04 08:03:49;;;;;;;8.60;2.60;;;;;;;;;;5045977;28;20178;-76
2023/08/04 08:06:16;;;;;;;6.28;2.58;;;;;;;;;;5060012;28;20149;-76
2023/08/04 08:08:42;;;;;;;8.52;2.80;;;;;;;;;;5064193;28;20049;-76
2023/08/04 08:11:09;;;;;;;7.47;2.80;;;;;;;;;;5065789;28;20078;-76
2023/08/04 08:13:35;;;;;;;12.07;4.07;;;;;;;;;;5062014;28;20056;-76
2023/08/04 08:16:08;;;;;;;24.17;4.72;;;;;;;;;;5064284;28;20143;-76
2023/08/04 08:18:35;;;;;;;11.17;3.07;;;;;;;;;;5064575;28;20058;-77
2023/08/04 08:21:03;;;;;;;9.75;3.22;;;;;;;;;;5069368;28;20064;-82
2023/08/04 08:23:29;;;;;;;14.98;5.18;;;;;;;;;;5067384;28;20076;-78
2023/08/04 08:25:55;;;;;;;22.33;4.10;;;;;;;;;;5058162;28;20048;-77
2023/08/04 08:28:22;;;;;;;10.43;2.40;;;;;;;;;;5085129;28;20411;-77
2023/08/04 08:30:48;;;;;;;9.45;2.17;;;;;;;;;;5064621;28;20055;-78
2023/08/04 08:33:14;;;;;;;10.63;2.35;;;;;;;;;;5084152;28;20044;-82
2023/08/04 08:35:41;;;;;;;9.20;2.33;;;;;;;;;;5050967;28;20698;-77
2023/08/04 08:38:07;;;;;;;7.97;2.10;;;;;;;;;;5084386;28;20153;-82
2023/08/04 08:40:33;;;;;;;7.43;1.77;;;;;;;;;;5066964;28;20109;-82
2023/08/04 08:42:59;;;;;;;7.53;1.83;;;;;;;;;;5051801;28;20073;-83
2023/08/04 08:45:29;;;;;;;6.38;1.33;;;;;;;;;;5065547;28;20504;-82
2023/08/04 08:47:56;;;;;;;11.23;2.88;;;;;;;;;;5070712;28;20667;-82
2023/08/04 08:50:23;;;;;;;9.32;1.60;;;;;;;;;;5069483;28;20138;-78
2023/08/04 08:52:51;;;;;;;10.60;1.83;;;;;;;;;;5031525;28;20043;-79
2023/08/04 08:55:18;;;;;;;8.15;2.05;;;;;;;;;;5069546;28;20047;-78
2023/08/04 08:57:44;;;;;;;7.40;1.92;;;;;;;;;;5088539;28;20042;-78
2023/08/04 09:00:11;;;;;;;7.28;1.80;;;;;;;;;;5090095;27;20060;-78
2023/08/04 09:02:37;;;;;;;9.68;2.00;;;;;;;;;;5069994;28;20726;-78
2023/08/04 09:05:05;;;;;;;5.25;1.92;;;;;;;;;;5066054;28;20051;-79
2023/08/04 09:07:31;;;;;;;6.35;1.65;;;;;;;;;;5087451;28;20101;-82
2023/08/04 09:09:57;;;;;;;9.32;2.33;;;;;;;;;;5089539;28;20044;-82
2023/08/04 09:12:25;;;;;;;5.97;1.88;;;;;;;;;;5070197;28;20320;-82
2023/08/04 09:14:55;;;;;;;7.35;1.73;;;;;;;;;;5069610;28;20079;-76
2023/08/04 09:17:32;;;;;;;7.53;1.20;;;;;;;;;;5089200;28;20067;-83
2023/08/04 09:19:58;;;;;;;5.00;1.40;;;;;;;;;;5074802;28;20047;-76
2023/08/04 09:22:25;;;;;;;7.97;1.70;;;;;;;;;;5050482;28;20048;-76
2023/08/04 09:25:02;;;;;;;10.48;2.03;;;;;;;;;;5083967;28;20071;-76
2023/08/04 09:27:31;;;;;;;7.30;1.58;;;;;;;;;;5082563;28;20175;-77
2023/08/04 09:30:01;;;;;;;7.32;1.95;;;;;;;;;;5085082;28;20100;-77
2023/08/04 09:32:27;;;;;;;9.32;2.28;;;;;;;;;;5084949;28;20052;-76
2023/08/04 09:35:00;;;;;;;7.43;2.08;;;;;;;;;;5086485;28;20120;-77
2023/08/04 09:37:27;;;;;;;11.07;2.20;;;;;;;;;;5084867;28;20055;-77
2023/08/04 09:39:53;;;;;;;13.95;2.17;;;;;;;;;;5080280;28;20126;-77
2023/08/04 09:42:21;;;;;;;13.13;2.10;;;;;;;;;;5063571;28;20079;-77
2023/08/04 09:44:54;;;;;;;4.43;1.40;;;;;;;;;;5049343;28;20052;-77
2023/08/04 09:47:24;;;;;;;6.95;1.75;;;;;;;;;;5065414;28;20079;-77
2023/08/04 09:49:51;;;;;;;15.65;3.22;;;;;;;;;;5083176;28;20581;-77
2023/08/04 09:52:21;;;;;;;16.08;3.35;;;;;;;;;;5083949;27;20097;-76
2023/08/04 09:54:47;;;;;;;10.73;2.33;;;;;;;;;;5063702;28;20126;-76
2023/08/04 09:57:14;;;;;;;11.52;2.33;;;;;;;;;;5081136;28;20058;-77
2023/08/04 09:59:40;;;;;;;10.02;1.98;;;;;;;;;;5080016;27;20051;-77
2023/08/04 10:02:07;;;;;;;9.82;2.10;;;;;;;;;;5066129;28;20048;-77
2023/08/04 10:04:34;;;;;;;14.50;2.63;;;;;;;;;;5042556;28;20047;-75
2023/08/04 10:07:00;;;;;;;7.50;1.95;;;;;;;;;;5083410;28;20050;-77
2023/08/04 10:09:27;;;;;;;7.25;2.03;;;;;;;;;;5083144;28;20051;-77
2023/08/04 10:11:53;;;;;;;10.68;3.10;;;;;;;;;;5083353;28;20047;-76
2023/08/04 10:14:19;;;;;;;10.70;1.63;;;;;;;;;;5063592;28;20051;-76
2023/08/04 10:16:46;;;;;;;6.03;1.70;;;;;;;;;;5059029;28;20430;-76
2023/08/04 10:19:13;;;;;;;7.93;1.67;;;;;;;;;;5064793;28;20047;-74
2023/08/04 10:21:40;;;;;;;8.30;1.67;;;;;;;;;;5082250;28;20048;-74
2023/08/04 10:24:07;;;;;;;5.97;1.60;;;;;;;;;;5067705;28;20047;-76
2023/08/04 10:26:34;;;;;;;7.80;2.10;;;;;;;;;;5087274;28;20150;-76
2023/08/04 10:29:01;;;;;;;5.82;1.20;;;;;;;;;;5068638;28;20475;-76
2023/08/04 10:32:01;;;;;;;7.18;2.13;;;;;;;;;;5068638;28;20059;-76
2023/08/04 10:34:35;;;;;;;4.93;1.30;;;;;;;;;;5025118;28;21610;-76
2023/08/04 10:37:01;;;;;;;;;;;;;;;;;;5086718;28;20082;-76
2023/08/04 10:39:32;;;;;;;9.55;2.17;;;;;;;;;;5068872;28;19949;-75
2023/08/04 10:41:59;;;;;;;6.88;1.60;;;;;;;;;;5085462;28;20044;-75
2023/08/04 10:44:31;;;;;;;5.13;1.52;;;;;;;;;;5071102;28;20180;-76
2023/08/04 10:47:01;;;;;;;4.18;1.30;;;;;;;;;;5051690;28;20083;-76
2023/08/04 10:49:28;;;;;;;6.55;2.03;;;;;;;;;;5070132;28;20421;-76
2023/08/04 10:51:54;;;;;;;4.68;1.38;;;;;;;;;;5066200;28;20048;-75
2023/08/04 10:54:20;;;;;;;3.80;0.90;;;;;;;;;;5048575;28;20146;-76
2023/08/04 10:56:46;;;;;;;4.75;1.73;;;;;;;;;;5088647;28;20079;-76
2023/08/04 10:59:13;;;;;;;4.85;1.20;;;;;;;;;;5086851;28;20499;-76
2023/08/04 11:01:39;;;;;;;3.00;1.08;;;;;;;;;;5068321;28;20043;-76
2023/08/04 11:04:05;;;;;;;3.83;1.20;;;;;;;;;;5068037;28;20054;-76
2023/08/04 11:06:31;;;;;;;2.53;0.98;;;;;;;;;;5066714;28;20047;-76
2023/08/04 11:08:57;;;;;;;6.60;1.33;;;;;;;;;;5067335;28;20043;-76
2023/08/04 11:11:24;;;;;;;4.07;1.60;;;;;;;;;;5085678;28;20525;-76
2023/08/04 11:13:50;;;;;;;7.90;1.60;;;;;;;;;;5067235;28;20055;-76
2023/08/04 11:16:16;;;;;;;6.47;1.30;;;;;;;;;;5085104;28;20043;-76
2023/08/04 11:18:42;;;;;;;3.65;1.25;;;;;;;;;;5066984;28;20637;-76
2023/08/04 11:21:08;;;;;;;8.32;1.40;;;;;;;;;;5086566;27;20495;-76
2023/08/04 11:23:35;;;;;;;7.70;1.30;;;;;;;;;;5065638;28;20055;-76
2023/08/04 11:26:01;;;;;;;8.07;1.60;;;;;;;;;;5067585;28;20048;-76
2023/08/04 11:28:27;;;;;;;10.95;1.48;;;;;;;;;;5062312;28;20036;-76
2023/08/04 11:30:54;;;;;;;7.63;1.42;;;;;;;;;;5068917;28;20059;-76
2023/08/04 11:33:20;;;;;;;5.00;1.60;;;;;;;;;;5082319;28;20055;-76
2023/08/04 11:35:46;;;;;;;6.45;1.60;;;;;;;;;;5068040;28;20135;-76
2023/08/04 11:38:12;;;;;;;4.15;1.45;;;;;;;;;;5086501;28;20044;-76
2023/08/04 11:40:53;;;;;;;6.28;1.20;;;;;;;;;;5084102;28;20047;-77
2023/08/04 11:43:20;;;;;;;6.55;1.50;;;;;;;;;;5062357;28;20119;-76
2023/08/04 11:45:47;;;;;;;6.22;2.35;;;;;;;;;;5065806;28;20048;-77
2023/08/04 11:48:14;;;;;;;7.22;1.70;;;;;;;;;;5083827;28;20065;-77
2023/08/04 11:50:40;;;;;;;5.68;1.90;;;;;;;;;;5063568;28;20058;-77
2023/08/04 11:53:06;;;;;;;7.95;1.90;;;;;;;;;;5082660;28;20071;-77
2023/08/04 11:55:35;;;;;;;8.77;2.20;;;;;;;;;;5065851;28;20167;-77
2023/08/04 11:58:02;;;;;;;6.85;1.77;;;;;;;;;;5064410;28;20178;-77
2023/08/04 12:00:38;;;;;;;10.18;1.73;;;;;;;;;;5067175;28;20127;-77
2023/08/04 12:03:04;;;;;;;4.82;1.60;;;;;;;;;;5079848;28;20093;-77
2023/08/04 12:05:31;;;;;;;4.95;1.73;;;;;;;;;;5062976;28;20051;-77
2023/08/04 12:08:12;;;;;;;6.25;1.75;;;;;;;;;;5061552;28;20048;-77
2023/08/04 12:10:38;;;;;;;15.48;1.52;;;;;;;;;;5063429;28;20408;-77
2023/08/04 12:13:04;;;;;;;6.43;1.40;;;;;;;;;;5082263;28;20157;-77
2023/08/04 12:15:30;;;;;;;6.65;1.80;;;;;;;;;;5065776;28;20047;-76
2023/08/04 12:17:57;;;;;;;7.50;1.60;;;;;;;;;;5063288;28;20515;-76
2023/08/04 12:20:23;;;;;;;5.30;1.30;;;;;;;;;;5067334;28;20146;-77
2023/08/04 12:22:49;;;;;;;3.50;1.50;;;;;;;;;;5063278;28;22048;-76
2023/08/04 12:25:15;;;;;;;3.83;1.30;;;;;;;;;;5081247;28;20040;-77
2023/08/04 12:27:41;;;;;;;2.85;1.13;;;;;;;;;;5079497;28;20055;-77
2023/08/04 12:30:08;;;;;;;4.38;1.77;;;;;;;;;;5080941;28;21625;-76
2023/08/04 12:32:34;;;;;;;6.78;1.60;;;;;;;;;;5061628;28;20063;-77
2023/08/04 12:35:00;;;;;;;4.75;1.83;;;;;;;;;;5062628;28;20052;-77
2023/08/04 12:37:26;;;;;;;3.67;1.33;;;;;;;;;;5062347;28;20047;-77
2023/08/04 12:39:52;;;;;;;6.80;1.50;;;;;;;;;;5078822;28;20039;-76
2023/08/04 12:42:18;;;;;;;3.78;1.55;;;;;;;;;;5080883;28;20047;-76
2023/08/04 12:44:45;;;;;;;2.85;1.02;;;;;;;;;;5060817;28;20055;-77
2023/08/04 12:47:11;;;;;;;4.93;1.58;;;;;;;;;;5062046;28;20055;-77
2023/08/04 12:49:37;;;;;;;3.35;1.10;;;;;;;;;;5078193;28;20044;-76
2023/08/04 12:52:04;;;;;;;4.07;1.25;;;;;;;;;;5063455;28;20060;-76
2023/08/04 12:54:30;;;;;;;5.05;1.60;;;;;;;;;;5079688;28;20055;-76
2023/08/04 12:56:56;;;;;;;6.35;1.55;;;;;;;;;;5079451;28;20090;-76
2023/08/04 12:59:22;;;;;;;3.63;1.25;;;;;;;;;;5062036;28;20066;-76
2023/08/04 13:01:48;;;;;;;4.32;1.30;;;;;;;;;;5061416;28;20043;-76
2023/08/04 13:04:14;;;;;;;4.03;1.23;;;;;;;;;;5080644;28;20044;-76
2023/08/04 13:06:40;;;;;;;5.45;1.88;;;;;;;;;;5061856;28;20092;-76
2023/08/04 13:09:06;;;;;;;5.45;1.52;;;;;;;;;;5081961;28;20054;-76
2023/08/04 13:11:32;;;;;;;3.00;1.30;;;;;;;;;;5081496;28;20481;-76
2023/08/04 13:13:58;;;;;;;5.28;1.55;;;;;;;;;;5059173;28;20055;-74
2023/08/04 13:16:24;;;;;;;6.15;1.50;;;;;;;;;;5060734;28;23310;-76
2023/08/04 13:18:52;;;;;;;6.75;2.17;;;;;;;;;;5061869;28;20635;-76
2023/08/04 13:21:18;;;;;;;5.65;1.73;;;;;;;;;;5078067;28;20075;-74
2023/08/04 13:23:44;;;;;;;7.43;2.42;;;;;;;;;;5061967;28;20055;-75
2023/08/04 13:26:10;;;;;;;6.15;1.58;;;;;;;;;;5060287;28;20047;-77
2023/08/04 13:28:36;;;;;;;4.75;1.10;;;;;;;;;;5062109;28;20059;-76
2023/08/04 13:31:05;;;;;;;2.15;1.00;;;;;;;;;;5080010;28;20040;-75
2023/08/04 13:33:31;;;;;;;4.40;1.10;;;;;;;;;;5079177;28;20052;-76
2023/08/04 13:35:58;;;;;;;4.55;1.20;;;;;;;;;;5068523;28;20196;-76
2023/08/04 13:38:24;;;;;;;4.25;1.33;;;;;;;;;;5071252;28;20055;-77
2023/08/04 13:40:50;;;;;;;4.32;1.38;;;;;;;;;;5049117;28;20131;-77
2023/08/04 13:43:17;;;;;;;3.92;1.08;;;;;;;;;;5088066;28;20058;-77
2023/08/04 13:45:43;;;;;;;3.38;1.30;;;;;;;;;;5068260;28;20575;-77
2023/08/04 13:48:09;;;;;;;4.50;1.20;;;;;;;;;;5083457;28;20055;-76
2023/08/04 13:50:38;;;;;;;4.93;1.25;;;;;;;;;;5067246;28;20044;-77
2023/08/04 13:53:04;;;;;;;2.83;1.10;;;;;;;;;;5085838;27;21096;-76
2023/08/04 13:55:30;;;;;;;3.40;1.13;;;;;;;;;;5084730;28;20044;-76
2023/08/04 13:57:56;;;;;;;2.10;1.10;;;;;;;;;;5082279;28;20047;-76
2023/08/04 14:00:22;;;;;;;3.60;1.20;;;;;;;;;;5065697;28;20075;-75
2023/08/04 14:02:48;;;;;;;5.18;1.08;;;;;;;;;;5084947;27;20074;-77
2023/08/04 14:05:14;;;;;;;3.35;1.08;;;;;;;;;;5082773;28;20341;-76
2023/08/04 14:07:43;;;;;;;3.97;1.10;;;;;;;;;;5083365;28;20106;-76
2023/08/04 14:10:10;;;;;;;3.00;1.42;;;;;;;;;;5083781;28;20056;-76
2023/08/04 14:12:36;;;;;;;4.22;1.10;;;;;;;;;;5065501;28;20113;-76
2023/08/04 14:15:02;;;;;;;3.80;1.60;;;;;;;;;;5063685;28;20051;-76
2023/08/04 14:17:28;;;;;;;2.75;1.20;;;;;;;;;;5066468;28;20126;-76
2023/08/04 14:19:54;;;;;;;4.43;1.10;;;;;;;;;;5047970;28;20052;-75
2023/08/04 14:22:21;;;;;;;5.30;1.15;;;;;;;;;;5066608;28;20055;-76
2023/08/04 14:24:47;;;;;;;2.92;1.10;;;;;;;;;;5083658;28;20050;-75
2023/08/04 14:27:13;;;;;;;3.50;1.67;;;;;;;;;;5086282;28;20058;-75
2023/08/04 14:29:39;;;;;;;5.70;1.70;;;;;;;;;;5068606;28;21995;-75
2023/08/04 14:32:05;;;;;;;6.90;1.90;;;;;;;;;;5083500;27;22054;-75
2023/08/04 14:34:31;;;;;;;3.30;1.52;;;;;;;;;;5066913;28;20055;-75
2023/08/04 14:36:57;;;;;;;5.43;1.30;;;;;;;;;;5066989;28;20068;-75
2023/08/04 14:39:23;;;;;;;1.75;1.10;;;;;;;;;;5083107;28;20044;-75